Time;durP1;ratioP1;P1;durP2;ratioP2;P2;SDS_P1;SDS_P2;PMS_P1;PMS_P2;Temp;Humidity;BMP_temperature;BMP_pressure;BME280_temperature;BME280_humidity;BME280_pressure;Samples;Min_cycle;Max_cycle;Signal;HPM_P1;HPM_P2
2021/09/07 00:00:17;;;;;;;13.95;9.68;;;15.50;99.90;;;;;;5117520;28;20054;-49
2021/09/07 00:02:43;;;;;;;16.80;10.93;;;15.30;99.90;;;;;;5117471;28;20024;-48
2021/09/07 00:05:10;;;;;;;14.48;10.93;;;15.30;99.90;;;;;;5117253;28;20526;-48
2021/09/07 00:07:37;;;;;;;16.65;11.15;;;15.20;99.90;;;;;;5117030;28;20471;-51
2021/09/07 00:10:07;;;;;;;15.73;11.38;;;15.00;99.90;;;;;;5117241;28;20027;-50
2021/09/07 00:12:33;;;;;;;18.92;11.38;;;15.00;99.90;;;;;;5117091;28;20107;-50
2021/09/07 00:14:59;;;;;;;16.15;12.05;;;15.30;99.90;;;;;;5117369;28;20047;-51
2021/09/07 00:17:25;;;;;;;16.92;12.10;;;15.30;99.90;;;;;;5116883;28;20118;-50
2021/09/07 00:19:51;;;;;;;15.13;11.02;;;15.30;99.90;;;;;;5098193;28;20038;-48
2021/09/07 00:22:17;;;;;;;24.45;11.90;;;15.50;99.90;;;;;;5115163;28;20415;-50
2021/09/07 00:24:42;;;;;;;14.70;11.32;;;15.30;99.90;;;;;;5116804;28;20020;-50
2021/09/07 00:27:08;;;;;;;14.73;11.40;;;15.10;99.90;;;;;;5116989;28;20085;-50
2021/09/07 00:29:34;;;;;;;19.40;12.05;;;15.10;99.90;;;;;;5116828;28;20382;-49
2021/09/07 00:31:59;;;;;;;15.82;11.60;;;15.10;99.90;;;;;;5116720;28;20024;-50
2021/09/07 00:34:25;;;;;;;13.35;10.95;;;15.20;99.90;;;;;;5116809;28;20062;-49
2021/09/07 00:36:51;;;;;;;15.23;11.30;;;15.30;99.90;;;;;;5097863;28;20052;-51
2021/09/07 00:39:17;;;;;;;13.00;10.70;;;15.60;99.90;;;;;;5132144;27;20501;-49
2021/09/07 00:41:43;;;;;;;13.02;11.48;;;15.70;99.90;;;;;;5097628;28;20046;-51
2021/09/07 00:44:17;;;;;;;16.10;10.45;;;15.60;99.90;;;;;;5116508;28;20099;-48
2021/09/07 00:46:51;;;;;;;18.25;10.65;;;15.70;99.90;;;;;;5116509;28;20039;-48
2021/09/07 00:49:18;;;;;;;17.02;10.90;;;15.70;99.90;;;;;;5116472;28;20080;-48
2021/09/07 00:51:46;;;;;;;15.07;10.73;;;15.60;99.90;;;;;;5116647;28;20099;-49
2021/09/07 00:54:12;;;;;;;15.32;10.75;;;15.70;99.90;;;;;;5116330;27;20093;-48
2021/09/07 00:56:41;;;;;;;16.65;11.43;;;15.70;99.90;;;;;;5116173;28;20080;-50
2021/09/07 00:59:08;;;;;;;15.45;12.05;;;15.60;99.90;;;;;;5114610;28;20035;-49
2021/09/07 01:01:34;;;;;;;16.42;11.85;;;15.50;99.90;;;;;;5115889;28;20540;-50
2021/09/07 01:04:00;;;;;;;17.67;12.70;;;15.40;99.90;;;;;;5116160;28;20031;-49
2021/09/07 01:06:27;;;;;;;14.77;10.75;;;15.50;99.90;;;;;;5116224;28;20095;-50
2021/09/07 01:08:54;;;;;;;17.27;11.95;;;15.60;99.90;;;;;;5116010;28;20024;-50
2021/09/07 01:11:20;;;;;;;15.20;10.55;;;15.70;99.90;;;;;;5115975;28;20419;-49
2021/09/07 01:13:46;;;;;;;16.50;11.32;;;15.90;99.90;;;;;;5115815;28;20467;-49
2021/09/07 01:16:12;;;;;;;16.95;11.38;;;15.90;99.90;;;;;;5115735;28;20031;-50
2021/09/07 01:18:40;;;;;;;21.90;11.13;;;16.00;99.90;;;;;;5116099;28;20034;-50
2021/09/07 01:21:10;;;;;;;11.65;10.30;;;16.00;99.90;;;;;;5115661;27;20035;-51
2021/09/07 01:23:41;;;;;;;16.23;10.48;;;16.10;99.80;;;;;;5114114;28;20494;-49
2021/09/07 01:26:08;;;;;;;18.75;10.70;;;16.20;99.50;;;;;;5116009;28;20514;-48
2021/09/07 01:28:37;;;;;;;13.30;10.50;;;16.20;99.30;;;;;;5115918;28;20032;-48
2021/09/07 01:31:04;;;;;;;14.55;9.90;;;16.30;99.00;;;;;;5115547;28;20088;-50
2021/09/07 01:33:30;;;;;;;12.23;9.30;;;16.30;98.70;;;;;;5115650;28;20084;-48
2021/09/07 01:35:57;;;;;;;13.18;9.73;;;16.30;98.40;;;;;;5115392;28;20032;-50
2021/09/07 01:38:25;;;;;;;17.60;10.15;;;16.20;98.30;;;;;;5096868;28;20039;-49
2021/09/07 01:40:51;;;;;;;13.02;9.25;;;16.30;98.00;;;;;;5114316;28;20020;-49
2021/09/07 01:43:17;;;;;;;15.13;10.27;;;16.10;98.00;;;;;;5115555;28;20400;-51
2021/09/07 01:45:48;;;;;;;15.13;10.63;;;16.00;98.00;;;;;;5113400;28;20055;-50
2021/09/07 01:48:22;;;;;;;14.70;9.77;;;16.10;98.10;;;;;;5115344;28;20039;-48
2021/09/07 01:50:48;;;;;;;16.92;11.02;;;16.10;98.30;;;;;;5115283;28;20023;-48
2021/09/07 01:53:14;;;;;;;14.05;10.60;;;16.10;98.50;;;;;;5115122;28;20023;-48
2021/09/07 01:55:41;;;;;;;15.70;10.82;;;16.10;98.30;;;;;;5115438;28;20487;-50
2021/09/07 01:58:07;;;;;;;12.10;10.15;;;16.10;98.40;;;;;;5114975;28;20031;-49
2021/09/07 02:00:33;;;;;;;11.50;9.45;;;16.10;98.30;;;;;;5115302;28;20031;-48
2021/09/07 02:02:59;;;;;;;15.43;11.00;;;16.10;98.50;;;;;;5115130;28;20027;-48
2021/09/07 02:05:25;;;;;;;13.07;9.75;;;16.10;98.90;;;;;;5130187;27;20395;-50
2021/09/07 02:07:50;;;;;;;18.17;10.77;;;16.00;98.80;;;;;;5114755;28;20402;-48
2021/09/07 02:10:17;;;;;;;13.90;10.18;;;16.00;98.60;;;;;;5114935;28;20019;-50
2021/09/07 02:12:43;;;;;;;13.50;10.70;;;16.10;98.50;;;;;;5095661;28;20031;-48
2021/09/07 02:15:09;;;;;;;17.42;10.43;;;16.10;98.30;;;;;;5114857;28;20028;-51
2021/09/07 02:17:37;;;;;;;14.70;10.05;;;16.20;98.20;;;;;;5129902;27;20059;-50
2021/09/07 02:20:03;;;;;;;19.15;10.68;;;16.10;98.00;;;;;;5129974;27;20040;-50
2021/09/07 02:22:29;;;;;;;19.63;9.95;;;16.10;97.80;;;;;;5112949;28;20054;-51
2021/09/07 02:24:55;;;;;;;15.48;9.95;;;16.10;97.60;;;;;;5113028;28;20039;-50
2021/09/07 02:27:21;;;;;;;15.38;9.48;;;16.10;97.20;;;;;;5114544;28;20071;-49
2021/09/07 02:29:47;;;;;;;12.07;9.23;;;16.10;97.00;;;;;;5129662;27;20394;-48
2021/09/07 02:32:13;;;;;;;10.45;9.10;;;16.10;96.80;;;;;;5114345;28;20020;-49
2021/09/07 02:34:39;;;;;;;11.75;9.00;;;16.10;96.90;;;;;;5114573;28;20023;-50
2021/09/07 02:37:05;;;;;;;9.73;8.68;;;16.00;97.50;;;;;;5114584;28;20023;-48
2021/09/07 02:39:31;;;;;;;14.73;10.18;;;15.90;97.70;;;;;;5114604;28;20030;-48
2021/09/07 02:41:57;;;;;;;13.15;10.02;;;15.50;98.90;;;;;;5114054;28;20535;-50
2021/09/07 02:44:23;;;;;;;17.70;9.98;;;14.90;99.90;;;;;;5129631;27;20118;-50
2021/09/07 02:46:49;;;;;;;12.57;9.32;;;14.30;99.90;;;;;;5095436;28;20122;-50
2021/09/07 02:49:15;;;;;;;11.90;9.10;;;14.10;99.90;;;;;;5114165;28;20030;-50
2021/09/07 02:51:43;;;;;;;15.40;9.80;;;13.70;99.90;;;;;;5114056;28;20114;-49
2021/09/07 02:54:09;;;;;;;10.38;8.93;;;13.60;99.90;;;;;;5113942;28;20035;-50
2021/09/07 02:56:35;;;;;;;13.88;8.88;;;13.60;99.90;;;;;;5114079;28;20070;-48
2021/09/07 02:59:01;;;;;;;14.07;9.40;;;13.60;99.90;;;;;;5113971;28;20467;-49
2021/09/07 03:01:27;;;;;;;12.57;9.48;;;13.60;99.90;;;;;;5114033;28;20490;-50
2021/09/07 03:03:54;;;;;;;14.35;11.00;;;13.90;99.90;;;;;;5114167;28;20024;-47
2021/09/07 03:06:20;;;;;;;12.15;9.40;;;13.70;99.90;;;;;;5113871;28;20154;-49
2021/09/07 03:08:46;;;;;;;13.88;9.73;;;13.80;99.90;;;;;;5112329;28;20368;-50
2021/09/07 03:11:12;;;;;;;15.05;9.73;;;13.80;99.90;;;;;;5113978;28;20030;-50
2021/09/07 03:13:38;;;;;;;16.88;9.20;;;13.90;99.90;;;;;;5113912;28;20030;-50
2021/09/07 03:16:04;;;;;;;13.15;9.00;;;14.20;99.90;;;;;;5114022;28;20381;-50
2021/09/07 03:18:30;;;;;;;14.50;9.00;;;14.40;99.90;;;;;;5113977;28;20024;-52
2021/09/07 03:20:56;;;;;;;14.65;9.73;;;14.50;99.90;;;;;;5113763;28;20479;-51
2021/09/07 03:23:22;;;;;;;14.85;10.52;;;14.70;99.90;;;;;;5115643;28;20034;-50
2021/09/07 03:25:47;;;;;;;14.45;11.35;;;14.80;99.90;;;;;;5118065;28;20023;-50
2021/09/07 03:28:14;;;;;;;16.23;10.13;;;14.60;99.90;;;;;;5133391;27;20398;-50
2021/09/07 03:30:40;;;;;;;14.98;11.23;;;14.20;99.90;;;;;;5118063;28;20065;-51
2021/09/07 03:33:06;;;;;;;13.73;10.25;;;14.00;99.90;;;;;;5099309;28;20035;-50
2021/09/07 03:35:32;;;;;;;16.85;10.75;;;13.90;99.90;;;;;;5118432;28;20106;-50
2021/09/07 03:38:01;;;;;;;13.05;9.88;;;13.90;99.90;;;;;;5118226;28;20062;-51
2021/09/07 03:40:27;;;;;;;13.95;9.05;;;13.90;99.90;;;;;;5118074;28;20544;-52
2021/09/07 03:42:52;;;;;;;10.93;8.43;;;13.90;99.90;;;;;;5133218;27;20036;-51
2021/09/07 03:45:18;;;;;;;12.60;8.70;;;13.50;99.90;;;;;;5117658;28;20462;-50
2021/09/07 03:47:45;;;;;;;16.00;8.63;;;13.30;99.90;;;;;;5098581;28;20168;-50
2021/09/07 03:50:13;;;;;;;21.00;9.55;;;13.00;99.90;;;;;;5117870;28;20019;-53
2021/09/07 03:52:40;;;;;;;15.27;10.05;;;12.90;99.90;;;;;;5122487;27;20385;-50
2021/09/07 03:55:06;;;;;;;11.75;9.20;;;13.00;99.90;;;;;;5117573;28;20024;-52
2021/09/07 03:57:32;;;;;;;16.20;10.90;;;13.00;99.90;;;;;;5117717;28;20458;-50
2021/09/07 03:59:58;;;;;;;17.35;10.10;;;12.90;99.90;;;;;;5347608;22;20050;-51
2021/09/07 04:02:24;;;;;;;13.80;10.07;;;12.70;99.90;;;;;;5137965;27;20027;-52
2021/09/07 04:04:51;;;;;;;12.88;10.02;;;12.40;99.90;;;;;;5102260;27;20110;-52
2021/09/07 04:07:17;;;;;;;12.90;9.93;;;12.30;99.90;;;;;;5138144;27;20363;-50
2021/09/07 04:09:43;;;;;;;13.23;10.00;;;12.20;99.90;;;;;;5102455;27;20033;-52
2021/09/07 04:12:09;;;;;;;13.98;10.35;;;12.20;99.90;;;;;;5138019;27;20377;-51
2021/09/07 04:14:35;;;;;;;14.05;10.32;;;12.40;99.90;;;;;;5138104;27;20023;-51
2021/09/07 04:17:02;;;;;;;14.05;10.35;;;12.50;99.90;;;;;;5137710;27;20027;-52
2021/09/07 04:19:28;;;;;;;14.95;10.95;;;12.50;99.90;;;;;;5137655;27;20458;-49
2021/09/07 04:21:54;;;;;;;16.33;9.82;;;12.60;99.90;;;;;;5137956;27;20083;-51
2021/09/07 04:24:19;;;;;;;14.48;10.15;;;12.60;99.90;;;;;;5137930;27;20019;-51
2021/09/07 04:26:45;;;;;;;12.52;9.93;;;12.80;99.90;;;;;;5085020;27;20043;-51
2021/09/07 04:29:11;;;;;;;14.75;10.90;;;13.00;99.90;;;;;;5137809;27;20023;-50
2021/09/07 04:31:37;;;;;;;14.02;10.93;;;13.30;99.90;;;;;;5138502;27;20583;-52
2021/09/07 04:34:03;;;;;;;16.30;10.80;;;13.60;99.90;;;;;;5101889;27;20028;-52
2021/09/07 04:36:29;;;;;;;16.20;11.95;;;13.70;99.90;;;;;;5137422;27;20188;-51
2021/09/07 04:38:55;;;;;;;17.15;10.25;;;13.90;99.90;;;;;;5137259;27;20045;-51
2021/09/07 04:41:21;;;;;;;14.10;10.07;;;14.10;99.90;;;;;;5137834;27;20026;-51
2021/09/07 04:43:47;;;;;;;12.27;10.45;;;14.30;99.90;;;;;;5068355;27;20027;-53
2021/09/07 04:46:13;;;;;;;13.23;9.45;;;14.40;99.90;;;;;;5137442;27;20359;-51
2021/09/07 04:48:39;;;;;;;12.13;8.70;;;14.50;99.90;;;;;;5137356;27;20035;-53
2021/09/07 04:51:04;;;;;;;17.05;9.32;;;14.60;99.90;;;;;;5137059;27;20072;-52
2021/09/07 04:53:30;;;;;;;13.68;9.70;;;14.70;99.90;;;;;;5137313;27;20030;-52
2021/09/07 04:55:56;;;;;;;14.38;9.18;;;14.70;99.90;;;;;;5118195;27;20038;-50
2021/09/07 04:58:22;;;;;;;15.50;10.05;;;14.50;99.90;;;;;;5084399;27;20031;-52
2021/09/07 05:00:48;;;;;;;15.30;10.18;;;14.30;99.90;;;;;;5136791;27;20462;-51
2021/09/07 05:03:14;;;;;;;12.70;9.88;;;14.30;99.90;;;;;;5136902;27;20463;-50
2021/09/07 05:05:40;;;;;;;15.50;10.13;;;14.40;99.90;;;;;;5137103;27;20035;-49
2021/09/07 05:08:06;;;;;;;17.55;10.07;;;14.60;99.90;;;;;;5067321;27;20050;-52
2021/09/07 05:10:32;;;;;;;13.70;9.85;;;14.70;99.90;;;;;;5084261;27;20031;-51
2021/09/07 05:12:58;;;;;;;12.80;9.68;;;14.80;99.90;;;;;;5136945;27;20038;-52
2021/09/07 05:15:24;;;;;;;12.73;9.85;;;14.60;99.90;;;;;;5136976;27;20019;-50
2021/09/07 05:17:50;;;;;;;14.07;10.30;;;14.50;99.90;;;;;;5136723;27;20027;-51
2021/09/07 05:20:16;;;;;;;18.08;10.15;;;14.60;99.90;;;;;;5100431;27;20088;-51
2021/09/07 05:22:42;;;;;;;14.40;9.52;;;14.70;99.90;;;;;;5136371;27;20034;-51
2021/09/07 05:25:09;;;;;;;13.68;10.55;;;15.00;99.90;;;;;;5059845;28;20043;-51
2021/09/07 05:27:36;;;;;;;13.88;10.63;;;15.20;99.90;;;;;;5093516;28;20130;-50
2021/09/07 05:30:04;;;;;;;18.77;11.63;;;15.30;99.90;;;;;;5093537;28;20071;-50
2021/09/07 05:32:30;;;;;;;19.40;11.45;;;15.50;99.90;;;;;;5059675;28;20107;-51
2021/09/07 05:34:56;;;;;;;15.07;11.32;;;15.40;99.90;;;;;;5093340;28;20449;-50
2021/09/07 05:37:21;;;;;;;15.63;12.00;;;15.50;99.90;;;;;;5093219;28;20066;-49
2021/09/07 05:39:47;;;;;;;17.95;12.35;;;15.60;99.90;;;;;;5093383;28;20062;-48
2021/09/07 05:42:13;;;;;;;19.48;12.65;;;15.50;99.90;;;;;;5093288;28;20024;-49
2021/09/07 05:44:39;;;;;;;18.38;13.05;;;15.50;99.90;;;;;;5092975;28;20040;-48
2021/09/07 05:47:05;;;;;;;20.58;15.27;;;15.60;99.90;;;;;;5058722;28;20036;-49
2021/09/07 05:49:31;;;;;;;16.52;13.60;;;15.80;99.90;;;;;;5092849;28;20522;-50
2021/09/07 05:51:58;;;;;;;18.60;11.73;;;16.00;99.90;;;;;;5092899;28;20110;-49
2021/09/07 05:54:23;;;;;;;17.85;12.35;;;16.00;99.90;;;;;;5092940;28;20039;-50
2021/09/07 05:56:49;;;;;;;19.52;11.73;;;16.00;99.90;;;;;;5127163;27;20035;-49
2021/09/07 05:59:16;;;;;;;15.60;11.23;;;16.10;99.90;;;;;;5135730;27;20023;-50
2021/09/07 06:01:43;;;;;;;14.05;10.90;;;16.30;99.90;;;;;;5135613;27;20050;-49
2021/09/07 06:04:09;;;;;;;14.60;11.52;;;16.40;99.90;;;;;;5135633;27;20073;-50
2021/09/07 06:06:35;;;;;;;14.30;11.32;;;16.50;99.90;;;;;;5136095;27;20019;-48
2021/09/07 06:09:01;;;;;;;17.98;11.48;;;16.30;99.90;;;;;;5135905;27;20023;-48
2021/09/07 06:11:27;;;;;;;15.90;10.75;;;16.40;99.90;;;;;;5135579;27;20354;-50
2021/09/07 06:13:52;;;;;;;18.02;11.50;;;16.50;99.90;;;;;;5079818;27;20050;-50
2021/09/07 06:16:18;;;;;;;13.45;10.93;;;16.80;99.90;;;;;;5125699;27;20366;-47
2021/09/07 06:18:44;;;;;;;13.68;10.73;;;16.80;99.90;;;;;;5071151;28;20032;-50
2021/09/07 06:21:10;;;;;;;19.88;11.15;;;17.00;99.90;;;;;;5112983;28;20114;-48
2021/09/07 06:23:36;;;;;;;13.43;10.40;;;17.10;99.90;;;;;;5114721;28;20111;-48
2021/09/07 06:26:03;;;;;;;16.55;10.20;;;17.20;99.90;;;;;;5114678;28;20026;-50
2021/09/07 06:28:29;;;;;;;16.73;11.20;;;17.40;99.90;;;;;;5114490;28;20042;-50
2021/09/07 06:30:54;;;;;;;15.50;10.55;;;17.70;99.90;;;;;;5114550;28;20023;-48
2021/09/07 06:33:20;;;;;;;15.18;10.88;;;17.90;99.90;;;;;;5114865;28;20024;-49
2021/09/07 06:35:46;;;;;;;11.77;9.82;;;18.10;99.90;;;;;;5114397;28;20032;-48
2021/09/07 06:38:12;;;;;;;17.67;10.35;;;18.30;99.90;;;;;;5130154;27;20073;-48
2021/09/07 06:40:39;;;;;;;19.60;10.85;;;18.40;99.90;;;;;;5135336;27;20067;-51
2021/09/07 06:43:05;;;;;;;18.30;10.25;;;18.40;99.80;;;;;;5135190;27;20074;-49
2021/09/07 06:45:31;;;;;;;13.48;10.13;;;18.50;99.60;;;;;;5135121;27;20140;-48
2021/09/07 06:47:56;;;;;;;13.88;9.68;;;18.50;99.20;;;;;;5134874;27;20122;-49
2021/09/07 06:50:22;;;;;;;14.80;9.93;;;18.60;98.90;;;;;;5134928;27;20027;-49
2021/09/07 06:52:48;;;;;;;16.23;10.63;;;18.80;99.00;;;;;;5134784;27;20030;-49
2021/09/07 06:55:14;;;;;;;17.33;10.18;;;18.70;98.20;;;;;;5098922;27;20038;-48
2021/09/07 06:57:40;;;;;;;15.05;9.90;;;18.70;97.90;;;;;;5098494;27;20039;-50
2021/09/07 07:00:06;;;;;;;14.73;10.35;;;18.70;97.40;;;;;;5134215;27;20136;-48
2021/09/07 07:02:36;;;;;;;17.02;10.00;;;18.70;97.50;;;;;;5099233;27;20023;-49
2021/09/07 07:05:01;;;;;;;14.23;10.07;;;19.00;98.20;;;;;;5134586;27;20094;-47
2021/09/07 07:07:27;;;;;;;19.80;10.63;;;19.10;97.70;;;;;;5048643;27;20534;-49
2021/09/07 07:09:53;;;;;;;15.73;10.23;;;19.40;97.70;;;;;;5134879;27;20111;-49
2021/09/07 07:12:18;;;;;;;14.05;9.20;;;19.60;97.20;;;;;;5082448;28;20496;-49
2021/09/07 07:14:44;;;;;;;14.95;9.88;;;19.80;96.90;;;;;;5134970;28;20023;-50
2021/09/07 07:17:10;;;;;;;14.13;9.23;;;20.00;95.60;;;;;;5098822;28;20076;-48
2021/09/07 07:19:37;;;;;;;16.38;10.85;;;20.10;95.20;;;;;;5098773;28;20050;-49
2021/09/07 07:22:03;;;;;;;11.95;9.35;;;20.20;95.10;;;;;;5098646;28;20027;-48
2021/09/07 07:24:28;;;;;;;13.30;8.55;;;20.30;95.00;;;;;;5099028;28;20055;-47
2021/09/07 07:26:54;;;;;;;13.30;8.02;;;20.60;94.60;;;;;;5099073;28;20094;-48
2021/09/07 07:29:20;;;;;;;11.13;7.97;;;20.60;93.50;;;;;;5134708;28;20072;-48
2021/09/07 07:31:46;;;;;;;10.35;7.57;;;20.80;93.00;;;;;;5134663;28;20489;-49
2021/09/07 07:34:12;;;;;;;11.02;8.10;;;20.90;92.30;;;;;;5134697;28;20411;-49
2021/09/07 07:36:37;;;;;;;13.07;7.00;;;21.30;92.10;;;;;;5134364;28;20463;-49
2021/09/07 07:39:04;;;;;;;12.38;7.18;;;21.40;91.30;;;;;;5134628;28;20023;-49
2021/09/07 07:41:30;;;;;;;8.52;6.32;;;21.40;91.10;;;;;;5098800;28;20050;-51
2021/09/07 07:43:56;;;;;;;8.40;6.40;;;21.40;90.20;;;;;;5097281;28;20470;-50
2021/09/07 07:46:22;;;;;;;12.35;6.93;;;21.70;90.80;;;;;;5133267;28;20019;-48
2021/09/07 07:48:48;;;;;;;9.57;7.30;;;22.00;90.70;;;;;;5132969;28;20122;-48
2021/09/07 07:51:14;;;;;;;13.15;6.85;;;22.10;90.00;;;;;;5133020;28;20024;-50
2021/09/07 07:53:40;;;;;;;11.65;6.35;;;22.20;90.00;;;;;;5132970;28;20027;-48
2021/09/07 07:56:06;;;;;;;12.65;7.13;;;22.50;87.50;;;;;;5132821;28;20478;-50
2021/09/07 07:58:32;;;;;;;9.88;6.30;;;22.40;87.10;;;;;;5132963;28;20068;-50
2021/09/07 08:00:58;;;;;;;10.10;6.43;;;22.90;89.40;;;;;;5132766;28;20128;-51
2021/09/07 08:03:24;;;;;;;10.23;6.72;;;22.50;86.10;;;;;;5096663;28;20042;-50
2021/09/07 08:05:50;;;;;;;10.38;6.55;;;22.50;86.40;;;;;;5132912;28;20027;-48
2021/09/07 08:08:17;;;;;;;11.30;6.25;;;23.10;87.20;;;;;;5132713;28;20031;-51
2021/09/07 08:10:43;;;;;;;9.45;5.63;;;23.50;84.60;;;;;;5134796;27;20023;-48
2021/09/07 08:13:09;;;;;;;7.18;5.47;;;23.70;82.30;;;;;;5117331;27;20504;-50
2021/09/07 08:15:35;;;;;;;10.43;5.80;;;24.00;80.30;;;;;;5136752;27;20027;-49
2021/09/07 08:18:01;;;;;;;7.63;5.60;;;24.40;81.10;;;;;;5136535;27;20114;-49
2021/09/07 08:20:30;;;;;;;12.07;5.57;;;24.70;78.70;;;;;;5136542;27;20526;-51
2021/09/07 08:22:56;;;;;;;11.88;5.20;;;24.60;77.80;;;;;;5136431;27;20023;-49
2021/09/07 08:25:22;;;;;;;8.00;6.10;;;24.80;76.00;;;;;;5136327;27;20019;-48
2021/09/07 08:27:48;;;;;;;9.38;4.90;;;24.60;75.40;;;;;;5117453;27;20673;-50
2021/09/07 08:30:15;;;;;;;8.02;5.28;;;24.50;74.00;;;;;;5066146;27;20042;-51
2021/09/07 08:32:42;;;;;;;10.68;5.07;;;24.30;74.60;;;;;;5136611;27;20031;-49
2021/09/07 08:35:10;;;;;;;10.20;6.03;;;24.80;74.00;;;;;;5136261;27;20019;-49
2021/09/07 08:37:36;;;;;;;8.60;5.07;;;24.80;73.80;;;;;;5136175;27;20019;-50
2021/09/07 08:40:03;;;;;;;11.35;5.00;;;25.10;72.30;;;;;;5099782;27;20027;-51
2021/09/07 08:42:29;;;;;;;9.27;4.95;;;25.10;71.80;;;;;;5136108;27;20172;-51
2021/09/07 08:44:56;;;;;;;7.25;5.15;;;25.20;72.00;;;;;;5136115;27;20085;-51
2021/09/07 08:47:22;;;;;;;8.88;4.80;;;25.70;72.90;;;;;;5135870;27;20031;-48
2021/09/07 08:49:48;;;;;;;8.55;5.05;;;25.60;70.40;;;;;;5099473;27;20398;-50
2021/09/07 08:52:14;;;;;;;9.02;5.15;;;25.60;69.00;;;;;;5135913;27;20106;-52
2021/09/07 08:54:43;;;;;;;10.93;4.65;;;25.30;68.30;;;;;;5135871;27;20080;-51
2021/09/07 08:57:09;;;;;;;9.30;4.82;;;25.40;68.50;;;;;;5135731;27;20016;-52
2021/09/07 08:59:36;;;;;;;12.82;6.00;;;25.40;67.80;;;;;;5099256;27;20045;-49
2021/09/07 09:02:13;;;;;;;7.45;4.65;;;25.50;68.10;;;;;;5132270;27;20034;-51
2021/09/07 09:04:42;;;;;;;10.25;4.85;;;25.10;68.50;;;;;;5083255;27;20074;-50
2021/09/07 09:07:19;;;;;;;6.38;4.22;;;25.90;69.30;;;;;;5135536;27;20027;-49
2021/09/07 09:09:45;;;;;;;9.05;4.82;;;26.10;66.30;;;;;;5135638;27;20028;-51
2021/09/07 09:12:11;;;;;;;7.05;4.10;;;26.20;67.60;;;;;;5075251;28;20487;-52
2021/09/07 09:14:42;;;;;;;7.63;3.78;;;26.30;64.30;;;;;;5092064;28;20279;-50
2021/09/07 09:17:17;;;;;;;9.95;5.00;;;26.10;62.90;;;;;;5041698;28;20470;-50
2021/09/07 09:19:56;;;;;;;7.07;4.15;;;26.40;65.00;;;;;;5092148;28;20032;-50
2021/09/07 09:22:39;;;;;;;6.70;4.28;;;26.60;60.80;;;;;;5057927;28;20115;-51
2021/09/07 09:25:25;;;;;;;5.43;4.25;;;26.80;61.70;;;;;;5092001;28;20078;-49
2021/09/07 09:28:16;;;;;;;7.82;4.57;;;27.00;63.10;;;;;;5091615;28;20495;-52
2021/09/07 09:30:46;;;;;;;8.88;4.05;;;27.30;63.40;;;;;;5091903;28;20032;-50
2021/09/07 09:33:30;;;;;;;5.82;3.58;;;27.30;61.90;;;;;;5091794;28;20562;-50
2021/09/07 09:36:00;;;;;;;7.35;4.80;;;27.20;61.10;;;;;;5091804;28;20545;-50
2021/09/07 09:38:34;;;;;;;6.13;4.18;;;27.30;60.90;;;;;;5074867;28;20419;-49
2021/09/07 09:41:06;;;;;;;8.13;4.40;;;26.90;60.30;;;;;;5091543;28;20028;-51
2021/09/07 09:43:38;;;;;;;6.15;4.00;;;;;;;;;;5084838;27;20507;-49
2021/09/07 09:46:23;;;;;;;11.75;3.78;;;;;;;;;;5099517;27;20031;-50
2021/09/07 09:48:50;;;;;;;6.97;4.20;;;27.90;61.00;;;;;;5134819;27;20067;-50
2021/09/07 09:51:17;;;;;;;6.07;3.60;;;;;;;;;;5134796;27;20026;-49
2021/09/07 09:53:46;;;;;;;6.82;4.68;;;28.50;60.80;;;;;;5134650;27;20042;-52
2021/09/07 09:56:13;;;;;;;6.40;4.13;;;28.60;60.40;;;;;;5134605;27;20027;-50
2021/09/07 09:58:39;;;;;;;8.20;4.55;;;28.40;58.40;;;;;;5134586;27;20060;-51
2021/09/07 10:01:05;;;;;;;5.47;4.30;;;28.60;59.10;;;;;;5098068;27;20051;-50
2021/09/07 10:03:33;;;;;;;7.05;4.00;;;28.40;58.90;;;;;;5098140;27;20031;-50
2021/09/07 10:05:59;;;;;;;7.80;4.15;;;28.50;59.90;;;;;;5134536;27;20023;-49
2021/09/07 10:08:25;;;;;;;7.97;4.78;;;;;;;;;;5098013;27;20035;-51
2021/09/07 10:11:17;;;;;;;8.02;4.05;;;29.50;58.50;;;;;;5134289;27;20062;-49
2021/09/07 10:13:44;;;;;;;;;;;29.20;58.40;;;;;;5134783;27;20053;-49
2021/09/07 10:16:17;;;;;;;8.32;4.47;;;28.40;57.50;;;;;;5134200;27;19904;-51
2021/09/07 10:18:54;;;;;;;10.45;4.55;;;28.90;58.60;;;;;;5134327;27;20023;-49
2021/09/07 10:26:42;;;;;;;5.05;4.20;;;29.40;81.70;;;;;;5133983;27;20034;-52
2021/09/07 10:29:09;;;;;;;;;;;29.10;60.10;;;;;;5134547;27;20033;-52
2021/09/07 10:31:49;;;;;;;6.88;3.78;;;28.90;56.10;;;;;;5133961;27;20032;-50
2021/09/07 10:34:16;;;;;;;6.68;4.38;;;;;;;;;;5133271;27;20023;-49
2021/09/07 10:37:01;;;;;;;6.03;3.83;;;;;;;;;;5133902;27;20031;-51
2021/09/07 10:39:27;;;;;;;6.60;3.40;;;;;;;;;;5119023;27;20065;-50
2021/09/07 10:41:53;;;;;;;7.50;4.30;;;;;;;;;;5133830;27;20038;-51
2021/09/07 10:44:31;;;;;;;8.07;3.85;;;;;;;;;;5133711;27;20246;-50
2021/09/07 10:46:58;;;;;;;7.82;4.05;;;;;;;;;;5134279;27;20034;-52
2021/09/07 10:49:36;;;;;;;7.22;3.50;;;29.40;90.90;;;;;;5134594;27;20016;-51
2021/09/07 10:52:15;;;;;;;6.90;3.92;;;29.20;73.70;;;;;;5134652;27;20039;-51
2021/09/07 10:54:47;;;;;;;4.85;3.25;;;;;;;;;;5134671;27;20042;-52
2021/09/07 10:57:32;;;;;;;5.85;3.92;;;29.50;81.30;;;;;;5134801;27;20344;-52
2021/09/07 11:00:01;;;;;;;6.38;4.00;;;29.70;82.90;;;;;;5130533;27;20390;-53
2021/09/07 11:02:41;;;;;;;6.68;4.03;;;29.60;82.60;;;;;;5114006;28;20035;-51
2021/09/07 11:05:32;;;;;;;6.07;3.28;;;29.20;81.40;;;;;;5114289;28;20023;-51
2021/09/07 11:08:08;;;;;;;5.90;4.03;;;29.00;63.80;;;;;;5114009;28;20543;-51
2021/09/07 11:10:34;;;;;;;5.00;4.00;;;;;;;;;;5113898;28;20023;-53
2021/09/07 11:13:25;;;;;;;6.25;4.45;;;29.40;91.90;;;;;;5113853;28;20038;-51
2021/09/07 11:15:52;;;;;;;7.47;3.60;;;;;;;;;;5114020;28;20471;-52
2021/09/07 11:18:24;;;;;;;10.55;4.13;;;;;;;;;;5095190;28;20067;-53
2021/09/07 11:20:51;;;;;;;6.32;4.07;;;;;;;;;;5113883;28;20433;-51
2021/09/07 11:23:18;;;;;;;6.53;3.65;;;;;;;;;;5112496;28;20031;-50
2021/09/07 11:25:52;;;;;;;6.38;4.20;;;;;;;;;;5112566;28;20087;-51
2021/09/07 11:28:18;;;;;;;5.47;3.60;;;;;;;;;;5112641;28;20054;-52
2021/09/07 11:30:47;;;;;;;6.35;3.70;;;;;;;;;;5112547;28;20030;-52
2021/09/07 11:33:18;;;;;;;7.60;4.78;;;;;;;;;;5112716;28;20039;-51
2021/09/07 11:35:45;;;;;;;13.17;4.73;;;;;;;;;;5112252;28;20046;-51
2021/09/07 11:38:16;;;;;;;9.43;4.28;;;;;;;;;;5112681;28;20028;-51
2021/09/07 11:40:48;;;;;;;6.35;4.20;;;;;;;;;;5112510;28;20039;-50
2021/09/07 11:43:15;;;;;;;6.03;4.07;;;;;;;;;;5112577;28;20151;-51
2021/09/07 11:45:41;;;;;;;7.35;4.30;;;;;;;;;;5116174;28;20360;-53
2021/09/07 11:48:08;;;;;;;7.97;4.28;;;;;;;;;;5116244;28;20035;-52
2021/09/07 11:50:35;;;;;;;9.68;4.22;;;;;;;;;;5116374;28;20383;-53
2021/09/07 11:53:04;;;;;;;7.22;4.38;;;;;;;;;;5097398;28;20486;-51
2021/09/07 11:55:44;;;;;;;6.25;4.30;;;;;;;;;;5116408;27;20038;-52
2021/09/07 11:58:11;;;;;;;9.23;4.82;;;;;;;;;;5116372;28;20035;-50
2021/09/07 12:00:37;;;;;;;6.07;3.10;;;;;;;;;;5096990;28;20044;-53
2021/09/07 12:03:10;;;;;;;9.35;3.95;;;;;;;;;;5116077;28;20067;-52
2021/09/07 12:05:54;;;;;;;6.05;3.47;;;;;;;;;;5116245;28;20114;-50
2021/09/07 12:08:21;;;;;;;7.57;3.70;;;;;;;;;;5116115;28;20081;-52
2021/09/07 12:10:51;;;;;;;6.45;3.90;;;;;;;;;;5116124;28;20015;-51
2021/09/07 12:13:19;;;;;;;8.27;4.30;;;;;;;;;;5116179;28;20027;-50
2021/09/07 12:15:45;;;;;;;7.15;4.13;;;;;;;;;;5115708;28;20382;-52
2021/09/07 12:18:25;;;;;;;4.72;3.80;;;;;;;;;;5115981;28;20732;-53
2021/09/07 12:20:51;;;;;;;6.03;3.88;;;;;;;;;;5115910;28;20027;-51
2021/09/07 12:23:37;;;;;;;8.82;3.80;;;;;;;;;;5115979;28;20031;-51
2021/09/07 12:26:03;;;;;;;9.63;3.70;;;;;;;;;;5115662;28;20458;-53
2021/09/07 12:28:30;;;;;;;5.10;3.50;;;;;;;;;;5115560;28;20035;-52
2021/09/07 12:31:12;;;;;;;9.30;3.67;;;;;;;;;;5115787;28;20132;-51
2021/09/07 12:33:47;;;;;;;4.43;3.28;;;;;;;;;;5115649;28;20540;-53
2021/09/07 12:36:14;;;;;;;5.32;3.50;;;;;;;;;;5115596;28;20073;-52
2021/09/07 12:38:40;;;;;;;6.40;3.78;;;;;;;;;;5115580;28;20043;-53
2021/09/07 12:41:09;;;;;;;5.07;3.92;;;;;;;;;;5115516;28;20028;-53
2021/09/07 12:43:40;;;;;;;5.10;3.13;;;;;;;;;;5096374;28;20032;-51
2021/09/07 12:46:07;;;;;;;7.22;3.58;;;;;;;;;;5115467;28;20092;-53
2021/09/07 12:48:34;;;;;;;6.95;3.80;;;;;;;;;;5115346;28;20032;-52
2021/09/07 12:51:02;;;;;;;5.90;3.50;;;;;;;;;;5115452;28;20031;-52
2021/09/07 12:53:30;;;;;;;5.97;3.72;;;;;;;;;;5130210;27;20034;-53
2021/09/07 12:55:56;;;;;;;6.07;3.10;;;;;;;;;;5135122;27;20087;-51
2021/09/07 12:58:23;;;;;;;4.80;3.40;;;;;;;;;;5099508;27;20032;-51
2021/09/07 13:00:49;;;;;;;6.95;4.00;;;;;;;;;;5135502;27;20139;-51
2021/09/07 13:03:15;;;;;;;4.60;3.67;;;;;;;;;;5099473;27;20038;-52